SBOSBO LIS / LPPT
Speedbird OnlineSpeedbird Online LIS / LPPT

Humberto Delgado Airport (Lisbon Portela Airport)
00:31 9.9°C

Location Lisbon, Portugal
Latitude: 38.7813
Longitude: -9.13592
Web Airport Website | Wikipedia
Altitude 114 Meter / 374 Feet
Distance 1,588 KM / 987 Miles
from London.
Time Zone UTC 0 hours (Europe/Lisbon)
Codes IATA: LIS
ICAO: LPPT
Currency £1 equals EUR 1.13
Runways
RunwayLength (m)Surface
023805Asphalt
172400Asphalt
203805Asphalt
352400Asphalt
Radio
TypeDescriptionFrequency
APPAPP119.1
ATISATIS124.15
CLDCLD118.95
GNDGND121.75
INFOINFO123.75
RDORDO127.9
TWRTWR118.1
Live ATC
METAR LPPT 081430Z 08008KT 9999 FEW028 SCT035 13/09 Q1018
TAF TAF LPPT 081100Z 0812/0918 07010KT 9999 FEW018 SCT030 TEMPO 0812/0824 6000 RA SCT008 BKN015 FEW025TCU PROB30 TEMPO 0812/0821 08015G25KT 3000 TSRAGS SCT018CB BECMG 0915/0918 04008KT SCT035
Weather As Of 09 Feb 2023 00:31
Description Broken clouds
Wind 45 km/h from North (360°)
Cloud Cover 75%
Precipitation Rain: none, Snow: none
Sunrise 07:35
Sunset 18:06
Lounges Blue Lounge (Temporariy closed), Terminal 1
ANA Lounge , Terminal 1
Rotations During the last 90 days there were
407 flights from LHR
406 flights to LHR



Support Speedbird Online

© 2017-2023 Speedbird Online